createdAt,value
2023-01-11T00:00:21.691Z,24.20
2023-01-11T00:01:21.591Z,24.22
2023-01-11T00:02:21.577Z,24.19
2023-01-11T00:03:21.412Z,24.20
2023-01-11T00:04:21.401Z,24.22
2023-01-11T00:05:21.223Z,24.19
2023-01-11T00:06:21.164Z,24.20
2023-01-11T00:07:21.051Z,24.20
2023-01-11T00:08:20.953Z,24.22
2023-01-11T00:09:20.890Z,24.22
2023-01-11T00:10:20.826Z,24.20
2023-01-11T00:11:20.698Z,24.22
2023-01-11T00:12:20.628Z,24.20
2023-01-11T00:13:20.532Z,24.19
2023-01-11T00:14:20.434Z,24.22
2023-01-11T00:15:20.341Z,24.20
2023-01-11T00:16:20.335Z,24.22
2023-01-11T00:17:20.183Z,24.20
2023-01-11T00:18:20.080Z,24.22
2023-01-11T00:19:19.996Z,24.22
2023-01-11T00:20:19.915Z,24.22
2023-01-11T00:21:19.827Z,24.19
2023-01-11T00:22:19.728Z,24.20
2023-01-11T00:23:19.637Z,24.19
2023-01-11T00:24:19.538Z,24.22
2023-01-11T00:25:19.445Z,24.19
2023-01-11T00:26:19.355Z,24.20
2023-01-11T00:27:19.270Z,24.20
2023-01-11T00:28:19.221Z,24.19
2023-01-11T00:29:19.074Z,24.19
2023-01-11T00:30:19.006Z,24.19
2023-01-11T00:31:18.920Z,24.20
2023-01-11T00:32:18.805Z,24.19
2023-01-11T00:33:18.719Z,24.20
2023-01-11T00:34:18.623Z,24.17
2023-01-11T00:35:18.547Z,24.19
2023-01-11T00:36:18.452Z,24.20
2023-01-11T00:37:18.361Z,24.20
2023-01-11T00:38:18.266Z,24.20
2023-01-11T00:39:18.165Z,24.20
2023-01-11T00:40:18.128Z,24.17
2023-01-11T00:41:18.005Z,24.20
2023-01-11T00:42:17.921Z,24.22
2023-01-11T00:43:17.818Z,24.19
2023-01-11T00:44:17.738Z,24.19
2023-01-11T00:45:17.654Z,24.19
2023-01-11T00:46:17.611Z,24.20
2023-01-11T00:47:17.479Z,24.20
2023-01-11T00:48:17.404Z,24.19
2023-01-11T00:49:17.283Z,24.20
2023-01-11T00:50:17.221Z,24.22
2023-01-11T00:51:17.145Z,24.20
2023-01-11T00:52:17.055Z,24.19
2023-01-11T00:53:16.931Z,24.20
2023-01-11T00:54:16.866Z,24.22
2023-01-11T00:55:16.766Z,24.20
2023-01-11T00:56:16.679Z,24.19
2023-01-11T00:57:16.595Z,24.17
2023-01-11T00:58:16.512Z,24.19
2023-01-11T00:59:16.455Z,24.19
2023-01-11T01:00:16.355Z,24.22
2023-01-11T01:01:16.307Z,24.20
2023-01-11T01:02:16.186Z,24.22
2023-01-11T01:03:16.096Z,24.20
2023-01-11T01:04:16.044Z,24.20
2023-01-11T01:05:15.944Z,24.17
2023-01-11T01:06:15.843Z,24.19
2023-01-11T01:07:15.764Z,24.19
2023-01-11T01:08:15.701Z,24.16
2023-01-11T01:09:15.591Z,24.16
2023-01-11T01:10:15.524Z,24.19
2023-01-11T01:11:15.434Z,24.20
2023-01-11T01:12:15.360Z,24.17
2023-01-11T01:13:15.279Z,24.22
2023-01-11T01:14:15.194Z,24.19
2023-01-11T02:49:06.951Z,24.16
2023-01-11T02:50:06.867Z,24.16
2023-01-11T02:51:06.769Z,24.17
2023-01-11T02:52:06.689Z,24.19
2023-01-11T02:53:06.608Z,24.16
2023-01-11T02:54:06.541Z,24.15
2023-01-11T02:55:06.405Z,24.16
2023-01-11T02:56:06.322Z,24.16
2023-01-11T02:57:06.240Z,24.16
2023-01-11T02:58:06.157Z,24.16
2023-01-11T02:59:06.076Z,24.16
2023-01-11T03:00:05.982Z,24.17
2023-01-11T03:01:05.920Z,24.16
2023-01-11T03:02:05.929Z,24.15
2023-01-11T03:03:05.782Z,24.17
2023-01-11T03:04:05.647Z,24.17
2023-01-11T03:05:05.554Z,24.17
2023-01-11T03:06:05.461Z,24.15
2023-01-11T03:07:05.386Z,24.19
2023-01-11T03:08:05.300Z,24.16
2023-01-11T03:09:05.196Z,24.16
2023-01-11T03:51:01.480Z,24.15
2023-01-11T03:52:01.392Z,24.16
2023-01-11T03:53:01.319Z,24.15
2023-01-11T03:54:01.227Z,24.15
2023-01-11T03:55:01.161Z,24.12
2023-01-11T03:56:01.048Z,24.16
2023-01-11T03:57:00.966Z,24.13
2023-01-11T03:58:00.875Z,24.16
2023-01-11T03:59:00.795Z,24.15
2023-01-11T04:00:00.717Z,24.13
2023-01-11T04:01:00.677Z,24.13
2023-01-11T04:02:00.542Z,24.16
2023-01-11T04:03:00.459Z,24.13
2023-01-11T04:04:00.396Z,24.16
2023-01-11T04:05:00.289Z,24.13
2023-01-11T04:06:00.180Z,24.12
2023-01-11T04:07:00.160Z,24.16
2023-01-11T04:08:00.026Z,24.16
2023-01-11T04:08:59.912Z,24.15
2023-01-11T04:09:59.817Z,24.15
2023-01-11T04:10:59.744Z,24.15
2023-01-11T04:11:59.648Z,24.16
2023-01-11T04:12:59.556Z,24.15
2023-01-11T04:13:59.459Z,24.16
2023-01-11T04:14:59.368Z,24.15
2023-01-11T04:15:59.347Z,24.15
2023-01-11T04:16:59.200Z,24.13
2023-01-11T04:17:59.121Z,24.15
2023-01-11T04:18:59.014Z,24.15
2023-01-11T04:19:58.938Z,24.15
2023-01-11T04:20:58.848Z,24.13
2023-01-11T04:21:58.744Z,24.13
2023-01-11T04:22:58.652Z,24.12
2023-01-11T04:23:58.558Z,24.15
2023-01-11T04:24:58.469Z,24.12
2023-01-11T04:25:58.405Z,24.12
2023-01-11T04:26:58.293Z,24.13
2023-01-11T04:27:58.208Z,24.13
2023-01-11T04:28:58.104Z,24.13
2023-01-11T04:29:58.029Z,24.13
2023-01-11T04:30:57.942Z,24.13
2023-01-11T04:31:57.834Z,24.13
2023-01-11T04:32:57.745Z,24.13
2023-01-11T04:33:57.677Z,24.13
2023-01-11T04:34:57.576Z,24.15
2023-01-11T04:35:57.495Z,24.15
2023-01-11T04:36:57.395Z,24.13
2023-01-11T04:37:57.299Z,24.15
2023-01-11T04:38:57.212Z,24.16
2023-01-11T04:39:57.133Z,24.15
2023-01-11T04:40:57.069Z,24.12
2023-01-11T04:41:56.961Z,24.13
2023-01-11T04:42:56.879Z,24.13
2023-01-11T04:43:56.796Z,24.15
2023-01-11T04:44:56.693Z,24.15
2023-01-11T04:45:56.694Z,24.15
2023-01-11T04:46:56.530Z,24.13
2023-01-11T04:47:56.433Z,24.13
2023-01-11T04:48:56.347Z,24.13
2023-01-11T04:49:56.256Z,24.12
2023-01-11T04:50:56.176Z,24.12
2023-01-11T04:51:56.089Z,24.16
2023-01-11T04:52:55.992Z,24.16
2023-01-11T04:53:55.927Z,24.15
2023-01-11T04:54:55.836Z,24.13
2023-01-11T04:55:55.728Z,24.13
2023-01-11T04:56:55.640Z,24.13
2023-01-11T04:57:55.555Z,24.13
2023-01-11T04:58:55.458Z,24.13
2023-01-11T04:59:55.389Z,24.13
2023-01-11T05:00:55.331Z,24.16
2023-01-11T05:01:55.197Z,24.12
2023-01-11T06:49:46.165Z,23.78
2023-01-11T06:50:46.080Z,23.76
2023-01-11T06:51:45.955Z,23.78
2023-01-11T06:52:45.863Z,23.76
2023-01-11T06:53:45.784Z,23.74
2023-01-11T06:54:45.703Z,23.68
2023-01-11T06:55:45.606Z,23.64
2023-01-11T06:56:45.554Z,23.62
2023-01-11T06:57:45.491Z,23.61
2023-01-11T06:58:47.051Z,23.58
2023-01-11T06:59:45.279Z,23.60
2023-01-11T07:00:45.200Z,23.61
2023-01-11T08:16:39.002Z,24.56
2023-01-11T08:17:38.958Z,24.51
2023-01-11T08:18:39.657Z,24.54
2023-01-11T08:19:38.729Z,24.57
2023-01-11T08:20:38.745Z,24.56
2023-01-11T08:21:38.491Z,24.57
2023-01-11T08:22:38.423Z,24.59
2023-01-11T08:23:38.330Z,24.59
2023-01-11T08:24:38.236Z,24.59
2023-01-11T08:25:38.179Z,24.59
2023-01-11T08:26:38.094Z,24.60
2023-01-11T08:27:40.623Z,24.60
2023-01-11T08:28:37.920Z,24.61
2023-01-11T08:29:37.707Z,24.61
2023-01-11T08:30:37.603Z,24.63
2023-01-11T08:31:37.517Z,24.63
2023-01-11T08:32:37.416Z,24.63
2023-01-11T08:33:37.311Z,24.63
2023-01-11T08:34:37.214Z,24.64
2023-01-11T08:35:37.129Z,24.66
2023-01-11T08:36:37.017Z,24.64
2023-01-11T08:37:37.012Z,24.64
2023-01-11T08:38:36.843Z,24.68
2023-01-11T08:39:36.782Z,24.70
2023-01-11T08:40:36.648Z,24.71
2023-01-11T08:41:36.555Z,24.71
2023-01-11T08:42:36.469Z,24.68
2023-01-11T08:43:36.375Z,24.70
2023-01-11T08:44:36.279Z,24.71
2023-01-11T08:45:36.209Z,24.75
2023-01-11T08:46:36.169Z,24.75
2023-01-11T08:47:36.018Z,24.75
2023-01-11T08:48:35.936Z,24.78
2023-01-11T08:49:35.831Z,24.79
2023-01-11T08:50:35.769Z,24.79
2023-01-11T08:51:35.633Z,24.82
2023-01-11T08:52:35.579Z,24.82
2023-01-11T08:53:35.468Z,24.84
2023-01-11T08:54:35.367Z,24.84
2023-01-11T08:55:35.258Z,24.85
2023-01-11T08:56:35.197Z,24.87
2023-01-11T09:00:36.960Z,24.91
2023-01-11T09:31:36.056Z,25.19
2023-01-11T10:22:27.949Z,25.30
2023-01-11T10:23:27.792Z,25.30
2023-01-11T10:24:27.737Z,25.32
2023-01-11T10:25:27.581Z,25.32
2023-01-11T10:26:27.477Z,25.34
2023-01-11T10:27:27.381Z,25.34
2023-01-11T10:28:27.339Z,25.34
2023-01-11T10:29:27.264Z,25.36
2023-01-11T10:30:27.099Z,25.36
2023-01-11T10:31:27.029Z,25.37
2023-01-11T10:32:26.917Z,25.39
2023-01-11T10:33:26.805Z,25.40
2023-01-11T10:34:26.731Z,25.37
2023-01-11T10:35:26.602Z,25.40
2023-01-11T10:36:28.722Z,25.40
2023-01-11T10:37:26.419Z,25.42
2023-01-11T10:38:26.430Z,25.40
2023-01-11T10:39:26.223Z,25.43
2023-01-11T10:40:26.128Z,25.43
2023-01-11T10:41:26.225Z,25.44
2023-01-11T10:42:25.937Z,25.47
2023-01-11T10:43:25.866Z,25.47
2023-01-11T10:44:25.770Z,25.47
2023-01-11T10:45:25.692Z,25.47
2023-01-11T10:46:25.525Z,25.46
2023-01-11T10:47:25.428Z,25.44
2023-01-11T10:48:25.332Z,25.43
2023-01-11T10:49:25.291Z,25.40
2023-01-11T10:58:24.412Z,25.33
2023-01-11T10:59:24.292Z,25.29
2023-01-11T11:00:24.218Z,25.29
2023-01-11T11:01:24.087Z,25.26
2023-01-11T11:02:25.550Z,25.26
2023-01-11T11:03:23.921Z,25.25
2023-01-11T11:04:23.867Z,25.25
2023-01-11T11:05:23.761Z,25.26
2023-01-11T11:06:23.626Z,25.23
2023-01-11T11:07:23.527Z,25.22
2023-01-11T11:08:23.445Z,25.22
2023-01-11T11:09:23.391Z,25.22
2023-01-11T11:10:23.249Z,25.22
2023-01-11T11:11:23.148Z,25.21
2023-01-11T11:12:23.057Z,25.19
2023-01-11T11:13:22.956Z,25.18
2023-01-11T11:14:22.861Z,25.15
2023-01-11T11:15:22.775Z,25.16
2023-01-11T11:16:22.788Z,25.15
2023-01-11T11:17:22.586Z,25.16
2023-01-11T11:18:22.539Z,25.14
2023-01-11T11:19:22.416Z,25.15
2023-01-11T11:20:22.318Z,25.15
2023-01-11T11:21:22.227Z,25.16
2023-01-11T11:22:22.171Z,25.14
2023-01-11T11:23:22.064Z,25.14
2023-01-11T11:24:21.968Z,25.12
2023-01-11T11:25:21.871Z,25.12
2023-01-11T11:26:21.778Z,25.12
2023-01-11T11:27:21.711Z,25.12
2023-01-11T11:28:21.617Z,25.14
2023-01-11T11:29:21.518Z,25.14
2023-01-11T11:30:21.431Z,25.14
2023-01-11T11:31:21.353Z,25.12
2023-01-11T11:32:21.249Z,25.12
2023-01-11T11:33:21.158Z,25.11
2023-01-11T11:34:21.086Z,25.12
2023-01-11T11:35:20.972Z,25.12
2023-01-11T11:36:20.922Z,25.14
2023-01-11T11:37:20.829Z,25.12
2023-01-11T11:38:20.769Z,25.16
2023-01-11T11:39:20.628Z,25.14
2023-01-11T11:40:20.564Z,25.15
2023-01-11T11:41:20.471Z,25.14
2023-01-11T11:42:20.382Z,25.15
2023-01-11T11:43:20.288Z,25.15
2023-01-11T11:44:20.187Z,25.15
2023-01-11T11:45:20.107Z,25.12
2023-01-11T11:46:20.487Z,25.15
2023-01-11T11:47:19.900Z,25.16
2023-01-11T11:48:19.810Z,25.14
2023-01-11T11:49:19.717Z,25.14
2023-01-11T11:50:32.067Z,25.15
2023-01-11T11:51:20.529Z,25.15
2023-01-11T11:52:19.439Z,25.15
2023-01-11T11:53:19.357Z,25.14
2023-01-11T11:54:19.260Z,25.16
2023-01-11T11:55:19.205Z,25.14
2023-01-11T11:56:19.103Z,25.16
2023-01-11T11:57:19.000Z,25.18
2023-01-11T11:58:18.963Z,25.18
2023-01-11T11:59:18.829Z,25.16
2023-01-11T12:00:18.753Z,25.19
2023-01-11T12:01:18.625Z,25.19
2023-01-11T12:02:18.585Z,25.19
2023-01-11T12:03:18.458Z,25.19
2023-01-11T12:04:18.359Z,25.19
2023-01-11T12:05:18.296Z,25.18
2023-01-11T12:06:18.169Z,25.18
2023-01-11T12:07:18.065Z,25.18
2023-01-11T12:08:17.981Z,25.19
2023-01-11T12:09:17.890Z,25.19
2023-01-11T12:10:17.799Z,25.21
2023-01-11T12:11:17.706Z,25.21
2023-01-11T12:12:17.636Z,25.21
2023-01-11T12:13:17.525Z,25.21
2023-01-11T12:14:17.492Z,25.22
2023-01-11T12:15:17.363Z,25.21
2023-01-11T12:16:17.377Z,25.21
2023-01-11T12:17:17.155Z,25.21
2023-01-11T12:18:17.084Z,25.22
2023-01-11T12:19:16.964Z,25.21
2023-01-11T12:20:16.931Z,25.19
2023-01-11T12:21:16.810Z,25.22
2023-01-11T12:22:16.704Z,25.21
2023-01-11T12:23:16.614Z,25.21
2023-01-11T12:24:16.521Z,25.22
2023-01-11T12:25:16.422Z,25.22
2023-01-11T12:26:16.360Z,25.22
2023-01-11T12:27:16.304Z,25.21
2023-01-11T12:28:16.167Z,25.21
2023-01-11T12:29:16.077Z,25.18
2023-01-11T12:30:17.756Z,25.22
2023-01-11T12:31:16.047Z,25.18
2023-01-11T12:32:15.825Z,25.16
2023-01-11T12:33:15.715Z,25.18
2023-01-11T12:34:15.649Z,25.19
2023-01-11T12:35:15.552Z,25.18
2023-01-11T12:36:15.454Z,25.16
2023-01-11T12:37:15.371Z,25.18
2023-01-11T12:38:15.296Z,25.16
2023-01-11T12:39:15.173Z,25.16
2023-01-11T12:40:15.146Z,25.18
2023-01-11T12:41:14.998Z,25.15
2023-01-11T12:42:14.913Z,25.15
2023-01-11T12:43:14.865Z,25.15
2023-01-11T12:44:14.743Z,25.15
2023-01-11T12:45:14.643Z,25.15
2023-01-11T12:46:14.648Z,25.14
2023-01-11T12:47:16.173Z,25.14
2023-01-11T12:48:14.378Z,25.09
2023-01-11T12:49:14.289Z,25.14
2023-01-11T12:50:14.363Z,25.11
2023-01-11T12:51:14.122Z,25.12
2023-01-11T12:52:14.053Z,25.09
2023-01-11T12:53:13.944Z,25.11
2023-01-11T12:54:13.881Z,25.11
2023-01-11T12:55:13.776Z,25.08
2023-01-11T12:56:13.664Z,25.11
2023-01-11T12:57:13.579Z,25.11
2023-01-11T12:58:14.442Z,25.09
2023-01-11T12:59:13.396Z,25.09
2023-01-11T13:00:13.357Z,25.05
2023-01-11T13:01:13.283Z,25.05
2023-01-11T13:02:13.179Z,25.05
2023-01-11T13:03:13.027Z,25.08
2023-01-11T13:04:12.949Z,25.06
2023-01-11T13:05:12.836Z,25.05
2023-01-11T13:06:12.735Z,25.05
2023-01-11T13:07:12.691Z,25.05
2023-01-11T13:08:12.564Z,25.05
2023-01-11T13:09:12.467Z,25.04
2023-01-11T13:10:12.396Z,25.06
2023-01-11T13:11:12.350Z,25.05
2023-01-11T13:12:12.225Z,25.05
2023-01-11T13:13:12.112Z,25.04
2023-01-11T13:14:12.050Z,25.02
2023-01-11T13:15:11.940Z,24.99
2023-01-11T13:16:11.827Z,25.02
2023-01-11T13:17:11.796Z,24.98
2023-01-11T13:18:11.665Z,25.01
2023-01-11T13:19:11.552Z,24.99
2023-01-11T13:20:11.444Z,24.99
2023-01-11T13:21:11.338Z,24.99
2023-01-11T13:22:11.257Z,24.98
2023-01-11T13:23:11.167Z,24.96
2023-01-11T13:24:11.064Z,24.99
2023-01-11T13:25:10.995Z,24.96
2023-01-11T13:26:10.890Z,24.94
2023-01-11T13:27:10.889Z,24.95
2023-01-11T13:28:13.613Z,24.94
2023-01-11T13:29:11.613Z,24.92
2023-01-11T13:30:10.561Z,24.91
2023-01-11T13:31:10.480Z,24.92
2023-01-11T13:32:10.340Z,24.94
2023-01-11T13:33:10.318Z,24.92
2023-01-11T13:34:10.197Z,24.89
2023-01-11T13:35:10.109Z,24.91
2023-01-11T13:36:22.223Z,24.89
2023-01-11T13:37:10.895Z,24.91
2023-01-11T13:38:09.790Z,24.88
2023-01-11T13:39:09.708Z,24.89
2023-01-11T13:40:09.615Z,24.88
2023-01-11T13:41:09.534Z,24.88
2023-01-11T13:42:09.447Z,24.88
2023-01-11T13:43:09.371Z,24.87
2023-01-11T13:44:09.267Z,24.88
2023-01-11T13:45:09.181Z,24.88
2023-01-11T13:46:09.121Z,24.87
2023-01-11T13:47:08.983Z,24.84
2023-01-11T13:48:08.894Z,24.84
2023-01-11T13:49:08.796Z,24.84
2023-01-11T13:50:08.729Z,24.85
2023-01-11T13:51:08.609Z,24.85
2023-01-11T13:52:08.513Z,24.82
2023-01-11T13:53:08.431Z,24.81
2023-01-11T13:54:08.327Z,24.81
2023-01-11T13:55:11.260Z,24.78
2023-01-11T13:56:09.152Z,24.81
2023-01-11T13:57:08.048Z,24.79
2023-01-11T13:58:07.960Z,24.81
2023-01-11T13:59:07.862Z,24.79
2023-01-11T14:00:07.785Z,24.78
2023-01-11T14:01:07.788Z,24.81
2023-01-11T14:02:07.584Z,24.77
2023-01-11T14:03:07.536Z,24.77
2023-01-11T14:04:07.451Z,24.77
2023-01-11T14:05:07.320Z,24.74
2023-01-11T14:06:07.252Z,24.77
2023-01-11T14:07:07.165Z,24.75
2023-01-11T14:08:07.074Z,24.74
2023-01-11T14:09:06.986Z,24.74
2023-01-11T14:10:06.890Z,24.75
2023-01-11T14:11:06.786Z,24.74
2023-01-11T14:12:07.257Z,24.75
2023-01-11T14:13:06.659Z,24.77
2023-01-11T14:14:06.527Z,24.75
2023-01-11T14:15:06.435Z,24.75
2023-01-11T14:16:06.380Z,24.75
2023-01-11T14:17:06.252Z,24.78
2023-01-11T14:18:06.181Z,24.75
2023-01-11T14:19:06.092Z,24.75
2023-01-11T14:20:05.987Z,24.75
2023-01-11T14:21:05.900Z,24.77
2023-01-11T14:22:05.806Z,24.74
2023-01-11T14:23:05.744Z,24.75
2023-01-11T14:24:05.617Z,24.74
2023-01-11T14:25:05.519Z,24.77
2023-01-11T14:26:05.445Z,24.71
2023-01-11T14:27:05.400Z,24.70
2023-01-11T14:28:05.246Z,24.71
2023-01-11T14:29:05.166Z,24.74
2023-01-11T14:30:05.075Z,24.74
2023-01-11T14:31:05.039Z,24.75
2023-01-11T14:32:04.874Z,24.72
2023-01-11T14:33:04.779Z,24.72
2023-01-11T14:34:04.705Z,24.71
2023-01-11T14:35:04.607Z,24.70
2023-01-11T14:36:04.507Z,24.70
2023-01-11T14:37:04.429Z,24.71
2023-01-11T14:38:05.275Z,24.70
2023-01-11T14:39:04.229Z,24.70
2023-01-11T14:40:04.123Z,24.71
2023-01-11T14:41:04.075Z,24.71
2023-01-11T14:42:03.969Z,24.71
2023-01-11T14:43:03.873Z,24.70
2023-01-11T14:44:03.778Z,24.72
2023-01-11T14:45:03.715Z,24.71
2023-01-11T14:46:03.654Z,24.70
2023-01-11T14:47:03.503Z,24.70
2023-01-11T14:48:03.396Z,24.70
2023-01-11T14:49:03.309Z,24.72
2023-01-11T14:50:03.238Z,24.71
2023-01-11T14:51:03.166Z,24.70
2023-01-11T14:52:03.044Z,24.67
2023-01-11T14:53:02.953Z,24.70
2023-01-11T14:54:02.866Z,24.67
2023-01-11T14:55:02.795Z,24.67
2023-01-11T14:56:02.699Z,24.71
2023-01-11T14:57:02.631Z,24.68
2023-01-11T14:58:02.564Z,24.70
2023-01-11T14:59:02.447Z,24.72
2023-01-11T15:00:02.340Z,24.70
2023-01-11T15:01:02.260Z,24.70
2023-01-11T15:02:02.215Z,24.68
2023-01-11T15:03:02.104Z,24.67
2023-01-11T15:04:02.012Z,24.68
2023-01-11T15:05:02.040Z,24.67
2023-01-11T15:06:01.831Z,24.67
2023-01-11T15:07:01.758Z,24.68
2023-01-11T15:08:01.682Z,24.67
2023-01-11T15:09:01.589Z,24.66
2023-01-11T15:10:01.524Z,24.66
2023-01-11T15:11:01.431Z,24.66
2023-01-11T15:12:01.328Z,24.66
2023-01-11T15:13:01.292Z,24.68
2023-01-11T15:14:02.790Z,24.68
2023-01-11T15:15:01.117Z,24.67
2023-01-11T15:16:01.147Z,24.70
2023-01-11T15:17:00.928Z,24.70
2023-01-11T15:18:00.828Z,24.68
2023-01-11T15:19:00.724Z,24.68
2023-01-11T15:20:00.642Z,24.70
2023-01-11T15:21:00.557Z,24.68
2023-01-11T15:22:00.450Z,24.67
2023-01-11T15:23:00.358Z,24.68
2023-01-11T15:24:00.272Z,24.68
2023-01-11T15:25:00.195Z,24.68
2023-01-11T15:26:00.116Z,24.67
2023-01-11T15:27:00.059Z,24.68
2023-01-11T15:27:59.894Z,24.66
2023-01-11T15:28:59.802Z,24.67
2023-01-11T15:29:59.716Z,24.67
2023-01-11T15:30:59.696Z,24.68
2023-01-11T15:31:59.519Z,24.68
2023-01-11T15:32:59.476Z,24.66
2023-01-11T15:33:59.434Z,24.67
2023-01-11T15:34:59.265Z,24.64
2023-01-11T15:35:59.153Z,24.64
2023-01-11T15:36:59.111Z,24.68
2023-01-11T15:37:58.994Z,24.64
2023-01-11T15:38:58.886Z,24.67
2023-01-11T15:39:58.815Z,24.67
2023-01-11T15:40:58.715Z,24.64
2023-01-11T15:41:58.621Z,24.67
2023-01-11T15:42:58.532Z,24.67
2023-01-11T15:43:58.434Z,24.64
2023-01-11T15:44:58.344Z,24.66
2023-01-11T15:45:58.244Z,24.66
2023-01-11T15:46:58.174Z,24.68
2023-01-11T15:47:58.048Z,24.66
2023-01-11T15:48:57.977Z,24.66
2023-01-11T15:49:57.909Z,24.61
2023-01-11T15:50:57.801Z,24.67
2023-01-11T15:51:57.728Z,24.63
2023-01-11T15:52:57.621Z,24.67
2023-01-11T15:53:57.556Z,24.66
2023-01-11T15:54:57.474Z,24.64
2023-01-11T15:55:57.380Z,24.66
2023-01-11T15:56:57.283Z,24.67
2023-01-11T15:57:57.183Z,24.66
2023-01-11T15:58:57.128Z,24.63
2023-01-11T15:59:57.049Z,24.64
2023-01-11T16:00:56.997Z,24.67
2023-01-11T16:01:56.836Z,24.64
2023-01-11T16:02:56.751Z,24.64
2023-01-11T16:03:58.439Z,24.64
2023-01-11T16:04:56.582Z,24.64
2023-01-11T16:05:56.493Z,24.64
2023-01-11T16:06:56.404Z,24.67
2023-01-11T16:07:56.326Z,24.64
2023-01-11T16:08:56.235Z,24.66
2023-01-11T16:09:56.136Z,24.63
2023-01-11T16:10:56.037Z,24.64
2023-01-11T16:11:55.972Z,24.64
2023-01-11T16:12:55.877Z,24.63
2023-01-11T16:13:55.778Z,24.66
2023-01-11T16:14:55.709Z,24.64
2023-01-11T16:15:55.690Z,24.63
2023-01-11T16:16:55.530Z,24.63
2023-01-11T16:17:55.440Z,24.63
2023-01-11T16:18:55.368Z,24.64
2023-01-11T16:19:55.272Z,24.64
2023-01-11T16:20:55.211Z,24.64
2023-01-11T16:21:55.133Z,24.61
2023-01-11T16:22:55.035Z,24.66
2023-01-11T16:23:54.943Z,24.61
2023-01-11T16:24:54.865Z,24.63
2023-01-11T16:25:54.778Z,24.61
2023-01-11T16:26:54.737Z,24.61
2023-01-11T16:27:54.617Z,24.61
2023-01-11T16:28:54.535Z,24.60
2023-01-11T16:29:54.426Z,24.60
2023-01-11T16:30:54.352Z,24.60
2023-01-11T16:31:54.329Z,24.59
2023-01-11T16:32:54.175Z,24.59
2023-01-11T16:33:54.100Z,24.54
2023-01-11T16:34:54.003Z,24.56
2023-01-11T16:35:53.937Z,24.57
2023-01-11T16:36:53.845Z,24.59
2023-01-11T16:37:53.763Z,24.57
2023-01-11T16:38:53.658Z,24.56
2023-01-11T16:39:53.589Z,24.57
2023-01-11T16:40:53.506Z,24.57
2023-01-11T16:41:53.426Z,24.57
2023-01-11T16:42:53.361Z,24.57
2023-01-11T16:43:53.257Z,24.56
2023-01-11T16:44:53.181Z,24.54
2023-01-11T16:45:53.218Z,24.57
2023-01-11T16:46:52.997Z,24.56
2023-01-11T16:47:52.895Z,24.56
2023-01-11T16:48:52.839Z,24.57
2023-01-11T16:49:52.732Z,24.57
2023-01-11T16:50:52.632Z,24.57
2023-01-11T16:51:52.550Z,24.57
2023-01-11T16:52:52.452Z,24.56
2023-01-11T16:53:52.428Z,24.56
2023-01-11T16:54:52.291Z,24.54
2023-01-11T16:55:52.185Z,24.54
2023-01-11T16:56:52.100Z,24.54
2023-01-11T16:57:52.009Z,24.56
2023-01-11T16:58:51.915Z,24.53
2023-01-11T16:59:51.827Z,24.56
2023-01-11T17:00:51.739Z,24.54
2023-01-11T17:01:51.673Z,24.56
2023-01-11T17:02:51.527Z,24.54
2023-01-11T17:03:51.459Z,24.53
2023-01-11T17:04:51.349Z,24.51
2023-01-11T17:05:51.279Z,24.56
2023-01-11T17:06:51.145Z,24.53
2023-01-11T17:07:51.050Z,24.53
2023-01-11T17:08:50.975Z,24.54
2023-01-11T17:09:50.880Z,24.53
2023-01-11T17:10:50.780Z,24.54
2023-01-11T17:11:50.703Z,24.53
2023-01-11T17:12:50.604Z,24.54
2023-01-11T17:13:50.523Z,24.54
2023-01-11T17:14:50.508Z,24.53
2023-01-11T17:15:50.316Z,24.54
2023-01-11T17:16:50.415Z,24.53
2023-01-11T17:17:50.171Z,24.53
2023-01-11T17:18:50.074Z,24.51
2023-01-11T17:19:49.989Z,24.53
2023-01-11T17:20:49.907Z,24.53
2023-01-11T17:21:49.808Z,24.53
2023-01-11T17:22:49.734Z,24.51
2023-01-11T17:23:49.640Z,24.53
2023-01-11T17:24:49.545Z,24.53
2023-01-11T17:25:49.565Z,24.51
2023-01-11T17:26:49.415Z,24.53
2023-01-11T17:27:49.270Z,24.53
2023-01-11T17:28:49.204Z,24.53
2023-01-11T17:29:49.109Z,24.53
2023-01-11T17:30:49.013Z,24.50
2023-01-11T17:31:48.967Z,24.51
2023-01-11T17:32:48.857Z,24.51
2023-01-11T17:33:48.756Z,24.50
2023-01-11T17:34:48.665Z,24.53
2023-01-11T17:35:48.569Z,24.53
2023-01-11T17:36:48.472Z,24.51
2023-01-11T17:37:48.408Z,24.50
2023-01-11T17:38:48.302Z,24.50
2023-01-11T17:39:48.204Z,24.51
2023-01-11T17:40:48.106Z,24.51
2023-01-11T17:41:48.035Z,24.50
2023-01-11T17:42:47.948Z,24.49
2023-01-11T17:43:47.841Z,24.50
2023-01-11T17:44:47.766Z,24.51
2023-01-11T17:45:47.701Z,24.49
2023-01-11T17:46:47.563Z,24.53
2023-01-11T17:47:47.501Z,24.49
2023-01-11T17:48:47.404Z,24.46
2023-01-11T17:49:47.293Z,24.49
2023-01-11T17:50:47.209Z,24.50
2023-01-11T17:51:47.104Z,24.49
2023-01-11T17:52:54.740Z,24.49
2023-01-11T17:53:47.930Z,24.49
2023-01-11T17:54:46.835Z,24.50
2023-01-11T17:55:46.739Z,24.49
2023-01-11T17:56:46.665Z,24.49
2023-01-11T17:57:46.557Z,24.50
2023-01-11T17:58:46.484Z,24.50
2023-01-11T17:59:46.366Z,24.49
2023-01-11T18:00:46.323Z,24.49
2023-01-11T18:01:46.192Z,24.50
2023-01-11T18:02:46.130Z,24.50
2023-01-11T18:03:46.040Z,24.50
2023-01-11T18:04:45.916Z,24.47
2023-01-11T18:05:45.803Z,24.49
2023-01-11T18:06:45.720Z,24.49
2023-01-11T18:07:45.620Z,24.49
2023-01-11T18:08:45.529Z,24.49
2023-01-11T18:09:45.432Z,24.47
2023-01-11T18:10:45.344Z,24.47
2023-01-11T18:11:45.258Z,24.47
2023-01-11T18:12:45.170Z,24.51
2023-01-11T18:13:45.085Z,24.49
2023-01-11T18:14:44.994Z,24.49
2023-01-11T18:15:44.886Z,24.49
2023-01-11T18:16:44.862Z,24.47
2023-01-11T18:17:45.405Z,24.47
2023-01-11T18:18:44.637Z,24.49
2023-01-11T18:19:44.544Z,24.49
2023-01-11T18:20:44.447Z,24.50
2023-01-11T18:21:44.400Z,24.50
2023-01-11T18:22:44.290Z,24.49
2023-01-11T18:23:44.185Z,24.47
2023-01-11T18:24:44.095Z,24.50
2023-01-11T18:25:44.070Z,24.49
2023-01-11T18:26:43.962Z,24.47
2023-01-11T18:27:43.837Z,24.47
2023-01-11T18:28:43.792Z,24.49
2023-01-11T18:29:43.666Z,24.46
2023-01-11T18:30:43.644Z,24.49
2023-01-11T18:31:43.481Z,24.44
2023-01-11T18:32:43.394Z,24.46
2023-01-11T18:33:43.315Z,24.49
2023-01-11T18:34:43.219Z,24.44
2023-01-11T18:35:43.116Z,24.43
2023-01-11T18:36:43.044Z,24.44
2023-01-11T18:37:42.942Z,24.46
2023-01-11T18:38:42.861Z,24.46
2023-01-11T18:39:42.783Z,24.44
2023-01-11T18:40:42.669Z,24.47
2023-01-11T18:41:44.616Z,24.46
2023-01-11T18:42:42.500Z,24.46
2023-01-11T18:43:42.409Z,24.46
2023-01-11T18:44:42.323Z,24.49
2023-01-11T18:45:42.237Z,24.44
2023-01-11T18:46:42.138Z,24.46
2023-01-11T18:47:42.032Z,24.47
2023-01-11T18:48:41.966Z,24.44
2023-01-11T18:49:41.850Z,24.46
2023-01-11T18:50:41.768Z,24.46
2023-01-11T18:51:41.666Z,24.46
2023-01-11T18:52:41.566Z,24.46
2023-01-11T18:53:41.567Z,24.46
2023-01-11T18:54:41.530Z,24.46
2023-01-11T18:55:41.471Z,24.46
2023-01-11T18:56:41.462Z,24.46
2023-01-11T18:57:41.406Z,24.47
2023-01-11T18:58:41.383Z,24.44
2023-01-11T18:59:41.398Z,24.47
2023-01-11T19:00:41.326Z,24.49
2023-01-11T19:01:54.383Z,24.46
2023-01-11T19:02:42.994Z,24.44
2023-01-11T19:03:42.058Z,24.47
2023-01-11T19:04:41.152Z,24.46
2023-01-11T19:05:41.078Z,24.46
2023-01-11T19:06:40.977Z,24.47
2023-01-11T19:07:40.901Z,24.46
2023-01-11T19:08:40.796Z,24.46
2023-01-11T19:09:40.714Z,24.44
2023-01-11T19:10:40.627Z,24.49
2023-01-11T19:11:40.545Z,24.46
2023-01-11T19:12:40.518Z,24.44
2023-01-11T19:13:40.487Z,24.46
2023-01-11T19:14:40.447Z,24.43
2023-01-11T19:15:40.458Z,24.46
2023-01-11T19:16:40.371Z,24.44
2023-01-11T19:17:40.338Z,24.46
2023-01-11T19:18:40.312Z,24.44
2023-01-11T19:19:40.278Z,24.44
2023-01-11T19:20:40.246Z,24.46
2023-01-11T19:21:40.198Z,24.43
2023-01-11T19:22:40.192Z,24.47
2023-01-11T19:23:40.138Z,24.43
2023-01-11T19:24:40.112Z,24.46
2023-01-11T19:25:40.100Z,24.44
2023-01-11T19:26:40.112Z,24.43
2023-01-11T19:27:40.033Z,24.44
2023-01-11T19:28:40.017Z,24.46
2023-01-11T19:29:39.988Z,24.41
2023-01-11T19:30:40.007Z,24.43
2023-01-11T19:31:39.909Z,24.44
2023-01-11T19:32:39.863Z,24.41
2023-01-11T19:33:41.363Z,24.44
2023-01-11T19:34:39.752Z,24.44
2023-01-11T19:35:39.662Z,24.43
2023-01-11T19:36:39.567Z,24.44
2023-01-11T19:37:39.468Z,24.43
2023-01-11T19:38:39.369Z,24.43